createdAt,value
2022-11-05T00:00:14.127Z,96427.03
2022-11-05T00:02:58.992Z,96430.28
2022-11-05T00:05:43.829Z,96430.63
2022-11-05T00:08:28.848Z,96437.31
2022-11-05T00:10:55.238Z,96437.97
2022-11-05T00:13:40.377Z,96434.69
2022-11-05T00:16:25.603Z,96452.81
2022-11-05T00:19:07.119Z,96450.19
2022-11-05T00:21:53.278Z,96448.72
2022-11-05T00:24:38.249Z,96450.50
2022-11-05T00:27:04.747Z,96452.28
2022-11-05T00:29:31.437Z,96448.66
2022-11-05T00:31:58.078Z,96454.66
2022-11-05T00:34:24.603Z,96461.97
2022-11-05T00:36:51.043Z,96454.28
2022-11-05T00:39:17.484Z,96469.31
2022-11-05T00:41:43.883Z,96468.81
2022-11-05T00:44:36.582Z,96470.47
2022-11-05T00:47:21.460Z,96481.22
2022-11-05T00:49:47.796Z,96483.69
2022-11-05T00:52:32.811Z,96487.41
2022-11-05T00:54:59.101Z,96484.13
2022-11-05T00:57:25.435Z,96491.94
2022-11-05T00:59:51.763Z,96495.22
2022-11-05T01:02:18.399Z,96498.28
2022-11-05T01:04:44.889Z,96497.97
2022-11-05T01:07:11.223Z,96502.59
2022-11-05T01:09:37.527Z,96497.91
2022-11-05T01:12:03.924Z,96509.19
2022-11-05T01:14:30.332Z,96511.09
2022-11-05T01:16:56.664Z,96518.03
2022-11-05T01:19:23.007Z,96520.19
2022-11-05T01:21:49.430Z,96524.75
2022-11-05T01:24:16.270Z,96533.28
2022-11-05T01:26:42.678Z,96531.47
2022-11-05T01:29:10.517Z,96538.16
2022-11-05T01:31:38.005Z,96534.84
2022-11-05T01:34:04.383Z,96535.44
2022-11-05T01:36:30.783Z,96532.53
2022-11-05T01:38:57.121Z,96527.31
2022-11-05T01:41:23.455Z,96529.72
2022-11-05T01:43:57.357Z,96525.00
2022-11-05T01:46:26.919Z,96522.38
2022-11-05T01:48:58.578Z,96528.97
2022-11-05T01:51:28.537Z,96526.38
2022-11-05T01:54:06.759Z,96531.66
2022-11-05T01:56:39.308Z,96535.19
2022-11-05T01:59:09.097Z,96539.78
2022-11-05T02:01:35.870Z,96536.75
2022-11-05T02:04:04.034Z,96534.56
2022-11-05T02:06:36.795Z,96539.78
2022-11-05T02:09:15.177Z,96545.81
2022-11-05T02:11:41.496Z,96543.66
2022-11-05T02:14:09.090Z,96553.66
2022-11-05T02:16:38.581Z,96558.00
2022-11-05T02:19:05.088Z,96564.44
2022-11-05T02:22:01.844Z,96561.53
2022-11-05T02:24:53.584Z,96562.03
2022-11-05T02:27:35.124Z,96573.34
2022-11-05T02:30:20.062Z,96571.59
2022-11-05T02:32:55.664Z,96569.13
2022-11-05T02:35:31.866Z,96570.16
2022-11-05T02:38:10.459Z,96561.09
2022-11-05T02:40:39.954Z,96565.31
2022-11-05T02:43:26.538Z,96563.88
2022-11-05T02:46:08.544Z,96563.47
2022-11-05T02:48:44.146Z,96566.25
2022-11-05T02:51:10.436Z,96566.84
2022-11-05T02:53:42.931Z,96567.88
2022-11-05T02:56:12.028Z,96573.84
2022-11-05T02:58:38.806Z,96575.25
2022-11-05T03:01:07.010Z,96576.16
2022-11-05T03:03:39.119Z,96573.91
2022-11-05T03:06:33.266Z,96568.06
2022-11-05T03:09:17.242Z,96563.56
2022-11-05T03:11:50.239Z,96572.06
2022-11-05T03:14:36.823Z,96570.97
2022-11-05T03:17:10.341Z,96566.31
2022-11-05T03:19:36.743Z,96570.69
2022-11-05T03:22:08.245Z,96576.56
2022-11-05T03:24:38.745Z,96577.03
2022-11-05T03:27:14.149Z,96579.50
2022-11-05T03:29:46.213Z,96578.06
2022-11-05T03:32:14.550Z,96568.44
2022-11-05T03:34:49.813Z,96567.56
2022-11-05T03:37:18.184Z,96566.53
2022-11-05T03:39:47.170Z,96570.06
2022-11-05T03:42:15.771Z,96561.22
2022-11-05T03:44:46.945Z,96565.09
2022-11-05T03:47:15.492Z,96571.72
2022-11-05T03:49:48.637Z,96570.63
2022-11-05T03:52:19.624Z,96581.25
2022-11-05T03:54:46.630Z,96586.31
2022-11-05T03:57:14.057Z,96597.59
2022-11-05T03:59:44.501Z,96591.63
2022-11-05T04:02:12.093Z,96599.47
2022-11-05T04:04:38.843Z,96606.44
2022-11-05T04:07:24.107Z,96608.38
2022-11-05T04:10:09.992Z,96610.47
2022-11-05T04:12:54.841Z,96617.88
2022-11-05T04:15:21.197Z,96620.72
2022-11-05T04:17:47.512Z,96620.97
2022-11-05T04:20:33.195Z,96619.56
2022-11-05T04:23:18.842Z,96633.22
2022-11-05T04:25:45.261Z,96635.66
2022-11-05T04:28:12.132Z,96635.81
2022-11-05T04:30:38.478Z,96649.66
2022-11-05T04:33:04.865Z,96645.22
2022-11-05T04:35:33.099Z,96644.91
2022-11-05T04:38:01.975Z,96656.88
2022-11-05T04:40:29.545Z,96661.44
2022-11-05T04:42:55.948Z,96662.34
2022-11-05T04:45:23.410Z,96664.19
2022-11-05T04:47:49.969Z,96667.69
2022-11-05T04:50:16.748Z,96682.75
2022-11-05T04:52:43.162Z,96677.84
2022-11-05T04:55:09.907Z,96690.88
2022-11-05T04:57:36.212Z,96681.47
2022-11-05T05:00:02.590Z,96685.53
2022-11-05T05:02:28.989Z,96684.63
2022-11-05T05:04:55.576Z,96684.84
2022-11-05T05:07:21.962Z,96675.63
2022-11-05T05:09:48.475Z,96680.09
2022-11-05T05:12:14.948Z,96689.66
2022-11-05T05:14:41.296Z,96692.59
2022-11-05T05:17:07.648Z,96689.31
2022-11-05T05:19:53.950Z,96698.38
2022-11-05T05:22:20.469Z,96703.59
2022-11-05T05:24:52.439Z,96692.66
2022-11-05T05:27:19.307Z,96691.63
2022-11-05T05:29:45.634Z,96700.50
2022-11-05T05:32:12.136Z,96701.09
2022-11-05T05:34:38.540Z,96707.13
2022-11-05T05:37:04.963Z,96724.66
2022-11-05T05:39:31.386Z,96727.25
2022-11-05T05:41:57.826Z,96725.91
2022-11-05T05:44:24.430Z,96731.22
2022-11-05T05:46:50.755Z,96735.81
2022-11-05T05:49:17.080Z,96738.44
2022-11-05T05:51:43.451Z,96740.09
2022-11-05T05:54:10.694Z,96734.56
2022-11-05T05:56:37.068Z,96733.91
2022-11-05T05:59:04.871Z,96741.72
2022-11-05T06:01:31.260Z,96749.63
2022-11-05T06:03:57.685Z,96742.38
2022-11-05T06:06:24.062Z,96746.03
2022-11-05T06:08:50.553Z,96749.03
2022-11-05T06:11:17.099Z,96754.16
2022-11-05T06:13:43.475Z,96753.34
2022-11-05T06:16:10.029Z,96757.59
2022-11-05T06:18:36.690Z,96761.47
2022-11-05T06:21:03.090Z,96767.44
2022-11-05T06:23:30.132Z,96763.25
2022-11-05T06:25:59.394Z,96776.00
2022-11-05T06:28:25.814Z,96769.00
2022-11-05T06:30:52.137Z,96763.47
2022-11-05T06:33:18.516Z,96772.22
2022-11-05T06:35:44.829Z,96774.88
2022-11-05T06:38:11.198Z,96779.16
2022-11-05T06:40:37.745Z,96779.75
2022-11-05T06:43:04.061Z,96793.03
2022-11-05T06:45:31.510Z,96803.75
2022-11-05T06:47:58.434Z,96802.19
2022-11-05T06:50:25.527Z,96801.78
2022-11-05T06:52:58.938Z,96799.34
2022-11-05T06:55:25.937Z,96792.03
2022-11-05T06:57:52.519Z,96800.22
2022-11-05T07:00:18.983Z,96812.16
2022-11-05T07:02:45.651Z,96815.97
2022-11-05T07:05:12.291Z,96815.97
2022-11-05T07:07:39.119Z,96813.03
2022-11-05T07:10:06.388Z,96823.44
2022-11-05T07:12:33.734Z,96820.69
2022-11-05T07:15:00.141Z,96828.34
2022-11-05T07:17:26.501Z,96830.47
2022-11-05T07:19:52.921Z,96836.75
2022-11-05T07:22:19.250Z,96846.09
2022-11-05T07:24:47.232Z,96846.09
2022-11-05T07:27:13.966Z,96854.50
2022-11-05T07:29:40.298Z,96856.41
2022-11-05T07:32:06.611Z,96860.78
2022-11-05T07:34:32.962Z,96858.22
2022-11-05T07:36:59.703Z,96861.25
2022-11-05T07:39:26.009Z,96871.25
2022-11-05T07:41:53.343Z,96867.91
2022-11-05T07:44:21.127Z,96873.44
2022-11-05T07:46:47.491Z,96877.31
2022-11-05T07:49:13.841Z,96885.72
2022-11-05T07:51:40.193Z,96882.16
2022-11-05T07:54:08.552Z,96892.31
2022-11-05T07:56:34.868Z,96894.25
2022-11-05T07:59:01.282Z,96887.06
2022-11-05T08:01:27.788Z,96888.91
2022-11-05T08:03:54.204Z,96896.16
2022-11-05T08:06:20.574Z,96887.06
2022-11-05T08:08:47.399Z,96879.97
2022-11-05T08:11:14.222Z,96876.50
2022-11-05T08:13:42.743Z,96886.31
2022-11-05T08:16:10.693Z,96883.56
2022-11-05T08:18:37.026Z,96883.56
2022-11-05T08:21:04.345Z,96889.50
2022-11-05T08:23:31.663Z,96894.56
2022-11-05T08:25:58.227Z,96888.78
2022-11-05T08:28:25.215Z,96882.56
2022-11-05T08:30:53.027Z,96878.72
2022-11-05T08:33:20.886Z,96885.59
2022-11-05T08:35:47.727Z,96883.03
2022-11-05T08:38:15.062Z,96881.78
2022-11-05T08:40:42.045Z,96881.63
2022-11-05T08:43:09.960Z,96893.72
2022-11-05T08:45:38.228Z,96899.41
2022-11-05T08:48:06.341Z,96904.31
2022-11-05T08:50:33.251Z,96905.34
2022-11-05T08:52:59.900Z,96919.47
2022-11-05T08:55:27.715Z,96905.81
2022-11-05T08:58:04.585Z,96911.19
2022-11-05T09:00:31.965Z,96906.66
2022-11-05T09:02:58.939Z,96906.53
2022-11-05T09:05:25.279Z,96917.06
2022-11-05T09:07:54.152Z,96922.69
2022-11-05T09:10:24.347Z,96916.22
2022-11-05T09:12:50.675Z,96928.84
2022-11-05T09:15:17.045Z,96921.16
2022-11-05T09:17:43.384Z,96927.03
2022-11-05T09:20:11.161Z,96930.97
2022-11-05T09:22:42.179Z,96929.38
2022-11-05T09:25:10.047Z,96933.25
2022-11-05T09:27:36.409Z,96934.22
2022-11-05T09:30:02.781Z,96940.00
2022-11-05T09:32:30.362Z,96933.88
2022-11-05T09:34:56.818Z,96938.09
2022-11-05T09:37:23.135Z,96931.66
2022-11-05T09:39:49.642Z,96929.06
2022-11-05T09:42:16.988Z,96936.22
2022-11-05T09:44:52.485Z,96936.50
2022-11-05T09:47:30.897Z,96932.44
2022-11-05T09:49:58.813Z,96938.75
2022-11-05T09:52:27.874Z,96934.47
2022-11-05T09:54:55.508Z,96938.00
2022-11-05T09:57:25.226Z,96942.38
2022-11-05T09:59:53.312Z,96952.47
2022-11-05T10:02:49.226Z,96951.34
2022-11-05T10:05:16.064Z,96951.78
2022-11-05T10:07:47.590Z,96953.88
2022-11-05T10:10:26.233Z,96946.06
2022-11-05T10:12:58.653Z,96954.03
2022-11-05T10:15:25.974Z,96952.19
2022-11-05T10:18:06.086Z,96955.53
2022-11-05T10:20:32.659Z,96967.84
2022-11-05T10:23:01.440Z,96967.75
2022-11-05T10:25:30.684Z,96958.03
2022-11-05T10:27:57.827Z,96970.25
2022-11-05T10:30:24.172Z,96968.06
2022-11-05T10:32:53.485Z,96973.03
2022-11-05T10:35:22.551Z,96968.91
2022-11-05T10:37:49.535Z,96968.44
2022-11-05T10:40:34.608Z,96969.44
2022-11-05T10:43:04.505Z,96977.03
2022-11-05T10:45:40.113Z,96972.91
2022-11-05T10:48:18.442Z,96971.31
2022-11-05T10:50:45.311Z,96971.69
2022-11-05T10:53:14.326Z,96974.97
2022-11-05T10:55:42.584Z,96975.31
2022-11-05T10:58:09.070Z,96976.53
2022-11-05T11:00:36.582Z,96974.28
2022-11-05T11:03:05.780Z,96973.22
2022-11-05T11:05:40.084Z,96974.59
2022-11-05T11:08:20.277Z,96968.88
2022-11-05T11:10:51.780Z,96966.25
2022-11-05T11:13:25.869Z,96963.81
2022-11-05T11:15:52.650Z,96957.47
2022-11-05T11:18:25.339Z,96962.31
2022-11-05T11:20:51.723Z,96961.47
2022-11-05T11:23:18.076Z,96966.91
2022-11-05T11:25:58.018Z,96969.69
2022-11-05T11:28:39.985Z,96974.78
2022-11-05T11:31:14.241Z,96972.69
2022-11-05T11:33:42.379Z,96979.28
2022-11-05T11:36:09.813Z,96976.28
2022-11-05T11:38:39.084Z,96971.31
2022-11-05T11:41:05.523Z,96977.16
2022-11-05T11:43:35.085Z,96975.06
2022-11-05T11:46:06.112Z,96978.31
2022-11-05T11:48:35.082Z,96976.66
2022-11-05T11:51:15.689Z,96977.16
2022-11-05T11:53:42.007Z,96976.81
2022-11-05T11:56:16.100Z,96975.34
2022-11-05T11:58:44.336Z,96984.03
2022-11-05T12:01:25.851Z,96975.66
2022-11-05T12:03:55.279Z,96980.53
2022-11-05T12:06:41.865Z,96976.47
2022-11-05T12:09:08.207Z,96981.75
2022-11-05T12:11:40.678Z,96976.84
2022-11-05T12:14:19.100Z,96976.63
2022-11-05T12:16:45.798Z,96977.13
2022-11-05T12:19:21.029Z,96969.81
2022-11-05T12:22:02.736Z,96974.34
2022-11-05T12:24:34.162Z,96976.34
2022-11-05T12:27:23.559Z,96984.66
2022-11-05T12:29:52.836Z,96978.66
2022-11-05T12:32:22.279Z,96982.50
2022-11-05T12:34:48.605Z,96978.75
2022-11-05T12:37:32.410Z,96980.03
2022-11-05T12:40:05.314Z,96982.94
2022-11-05T12:42:50.240Z,96986.44
2022-11-05T12:45:29.781Z,96990.06
2022-11-05T12:48:02.250Z,96988.69
2022-11-05T12:50:34.107Z,96983.50
2022-11-05T12:53:03.524Z,96992.28
2022-11-05T12:55:49.582Z,96988.53
2022-11-05T12:58:45.366Z,96998.13
2022-11-05T13:01:15.825Z,96992.69
2022-11-05T13:03:44.378Z,96998.63
2022-11-05T13:06:13.747Z,96995.09
2022-11-05T13:08:46.841Z,96997.38
2022-11-05T13:11:22.637Z,96994.69
2022-11-05T13:14:07.811Z,96988.09
2022-11-05T13:16:36.263Z,96991.22
2022-11-05T13:19:07.062Z,96991.94
2022-11-05T13:21:35.040Z,96990.06
2022-11-05T13:24:08.904Z,96991.94
2022-11-05T13:26:53.974Z,96986.41
2022-11-05T13:29:21.323Z,96986.69
2022-11-05T13:31:53.883Z,96988.59
2022-11-05T13:34:21.568Z,96987.59
2022-11-05T13:37:11.296Z,96993.00
2022-11-05T13:39:43.474Z,96998.53
2022-11-05T13:42:28.531Z,96999.31
2022-11-05T13:45:06.671Z,96996.59
2022-11-05T13:47:36.078Z,97003.84
2022-11-05T13:50:08.187Z,97006.03
2022-11-05T13:52:51.128Z,97003.47
2022-11-05T13:55:37.654Z,97008.97
2022-11-05T13:58:07.002Z,97009.78
2022-11-05T14:00:36.609Z,97016.91
2022-11-05T14:03:05.066Z,97014.94
2022-11-05T14:05:34.685Z,97018.19
2022-11-05T14:08:23.291Z,97022.06
2022-11-05T14:11:02.296Z,97021.72
2022-11-05T14:13:34.872Z,97030.97
2022-11-05T14:16:08.994Z,97030.13
2022-11-05T14:18:43.557Z,97039.75
2022-11-05T14:21:30.366Z,97041.84
2022-11-05T14:23:57.977Z,97036.28
2022-11-05T14:26:28.755Z,97037.78
2022-11-05T14:29:04.136Z,97048.13
2022-11-05T14:31:54.394Z,97037.28
2022-11-05T14:34:21.877Z,97033.66
2022-11-05T14:37:17.707Z,97033.34
2022-11-05T14:39:44.251Z,97037.81
2022-11-05T14:42:19.953Z,97043.84
2022-11-05T14:44:57.301Z,97048.47
2022-11-05T14:47:25.633Z,97046.13
2022-11-05T14:49:55.088Z,97051.75
2022-11-05T14:52:21.482Z,97049.13
2022-11-05T14:54:49.317Z,97053.38
2022-11-05T14:57:35.628Z,97047.78
2022-11-05T15:00:02.582Z,97056.34
2022-11-05T15:02:37.077Z,97052.88
2022-11-05T15:05:29.997Z,97058.47
2022-11-05T15:07:57.526Z,97058.97
2022-11-05T15:10:27.314Z,97061.91
2022-11-05T15:13:02.011Z,97064.84
2022-11-05T15:15:29.976Z,97063.88
2022-11-05T15:17:58.094Z,97076.34
2022-11-05T15:20:29.247Z,97068.09
2022-11-05T15:22:59.548Z,97071.72
2022-11-05T15:25:37.992Z,97076.75
2022-11-05T15:28:23.404Z,97081.81
2022-11-05T15:31:16.001Z,97080.56
2022-11-05T15:33:43.135Z,97083.53
2022-11-05T15:36:29.268Z,97083.19
2022-11-05T15:39:27.549Z,97086.16
2022-11-05T15:41:44.528Z,97088.63
2022-11-05T15:44:46.485Z,97093.50
2022-11-05T15:47:14.926Z,97095.94
2022-11-05T15:49:46.040Z,97097.09
2022-11-05T15:52:13.253Z,97099.25
2022-11-05T15:54:39.638Z,97096.31
2022-11-05T15:57:15.053Z,97103.69
2022-11-05T15:59:45.847Z,97102.19
2022-11-05T16:02:27.013Z,97102.50
2022-11-05T16:04:53.513Z,97109.84
2022-11-05T16:07:19.970Z,97103.13
2022-11-05T16:09:58.502Z,97105.59
2022-11-05T16:12:27.330Z,97105.09
2022-11-05T16:14:56.693Z,97110.47
2022-11-05T16:17:24.515Z,97113.25
2022-11-05T16:19:51.423Z,97122.41
2022-11-05T16:22:18.062Z,97124.16
2022-11-05T16:24:44.989Z,97119.78
2022-11-05T16:27:19.301Z,97119.75
2022-11-05T16:29:49.599Z,97124.16
2022-11-05T16:32:19.511Z,97131.19
2022-11-05T16:34:47.823Z,97118.28
2022-11-05T16:37:16.048Z,97139.09
2022-11-05T16:39:42.410Z,97132.13
2022-11-05T16:42:24.455Z,97135.09
2022-11-05T16:44:51.301Z,97141.81
2022-11-05T16:47:20.430Z,97131.50
2022-11-05T16:49:50.437Z,97142.34
2022-11-05T16:52:18.199Z,97147.38
2022-11-05T16:54:44.506Z,97157.28
2022-11-05T16:57:24.319Z,97150.06
2022-11-05T16:59:50.690Z,97153.22
2022-11-05T17:02:17.270Z,97145.88
2022-11-05T17:04:43.778Z,97148.97
2022-11-05T17:07:10.094Z,97144.09
2022-11-05T17:09:36.613Z,97144.84
2022-11-05T17:12:03.070Z,97150.41
2022-11-05T17:14:30.519Z,97152.41
2022-11-05T17:16:59.559Z,97157.81
2022-11-05T17:19:25.916Z,97160.06
2022-11-05T17:21:52.279Z,97169.25
2022-11-05T17:24:18.944Z,97164.72
2022-11-05T17:26:45.326Z,97165.00
2022-11-05T17:29:11.707Z,97165.50
2022-11-05T17:31:39.402Z,97167.09
2022-11-05T17:34:05.788Z,97176.06
2022-11-05T17:36:32.098Z,97175.47
2022-11-05T17:38:58.500Z,97175.09
2022-11-05T17:41:24.856Z,97182.69
2022-11-05T17:43:56.682Z,97177.28
2022-11-05T17:46:23.569Z,97188.94
2022-11-05T17:48:49.899Z,97183.25
2022-11-05T17:51:18.454Z,97189.84
2022-11-05T17:53:45.314Z,97188.28
2022-11-05T17:56:12.882Z,97191.13
2022-11-05T17:58:39.938Z,97197.00
2022-11-05T18:01:07.289Z,97200.31
2022-11-05T18:03:33.833Z,97194.72
2022-11-05T18:06:00.899Z,97210.16
2022-11-05T18:08:28.418Z,97214.03
2022-11-05T18:10:54.860Z,97209.00
2022-11-05T18:13:21.154Z,97210.97
2022-11-05T18:15:49.815Z,97212.00
2022-11-05T18:18:16.141Z,97218.28
2022-11-05T18:20:44.537Z,97212.50
2022-11-05T18:23:11.126Z,97208.03
2022-11-05T18:25:39.680Z,97211.31
2022-11-05T18:28:06.130Z,97219.38
2022-11-05T18:30:33.138Z,97219.16
2022-11-05T18:32:59.579Z,97212.44
2022-11-05T18:35:26.141Z,97214.38
2022-11-05T18:37:52.479Z,97218.28
2022-11-05T18:40:18.797Z,97216.09
2022-11-05T18:42:45.112Z,97215.44
2022-11-05T18:45:11.673Z,97214.53
2022-11-05T18:47:43.831Z,97213.47
2022-11-05T18:50:10.504Z,97219.75
2022-11-05T18:52:36.854Z,97218.63
2022-11-05T18:55:03.492Z,97229.03
2022-11-05T18:57:29.843Z,97221.47
2022-11-05T18:59:56.184Z,97226.19
2022-11-05T19:02:22.960Z,97229.97
2022-11-05T19:05:13.959Z,97229.81
2022-11-05T19:07:37.113Z,97229.03
2022-11-05T19:10:03.711Z,97228.91
2022-11-05T19:12:30.154Z,97225.38
2022-11-05T19:15:01.885Z,97225.56
2022-11-05T19:17:29.034Z,97224.19
2022-11-05T19:19:55.461Z,97224.38
2022-11-05T19:22:21.757Z,97229.16
2022-11-05T19:24:48.063Z,97232.78
2022-11-05T19:27:14.419Z,97234.56
2022-11-05T19:29:40.869Z,97231.47
2022-11-05T19:32:09.091Z,97242.97
2022-11-05T19:34:35.945Z,97235.38
2022-11-05T19:37:02.253Z,97241.06
2022-11-05T19:39:28.545Z,97241.78
2022-11-05T19:42:00.335Z,97243.88
2022-11-05T19:44:29.460Z,97242.22
2022-11-05T19:46:55.854Z,97246.25
2022-11-05T19:49:22.226Z,97253.28
2022-11-05T19:51:48.625Z,97249.94
2022-11-05T19:54:17.035Z,97248.34
2022-11-05T19:56:43.383Z,97238.94
2022-11-05T19:59:11.089Z,97242.22
2022-11-05T20:01:37.589Z,97234.31
2022-11-05T20:04:04.900Z,97237.03
2022-11-05T20:06:33.371Z,97240.72
2022-11-05T20:11:49.430Z,97242.91
2022-11-05T20:14:16.231Z,97239.06
2022-11-05T20:16:42.805Z,97243.06
2022-11-05T20:19:11.531Z,97246.53
2022-11-05T20:21:38.026Z,97246.50
2022-11-05T20:24:04.712Z,97239.28
2022-11-05T20:26:31.684Z,97240.72
2022-11-05T20:28:58.190Z,97249.19
2022-11-05T20:31:24.636Z,97256.38
2022-11-05T20:33:51.379Z,97264.66
2022-11-05T20:36:19.228Z,97259.13
2022-11-05T20:38:49.803Z,97267.75
2022-11-05T20:41:16.940Z,97269.75
2022-11-05T20:43:43.347Z,97268.22
2022-11-05T20:46:13.682Z,97262.69
2022-11-05T20:48:40.436Z,97271.63
2022-11-05T20:51:08.079Z,97264.44
2022-11-05T20:53:34.895Z,97267.88
2022-11-05T20:56:05.156Z,97265.03
2022-11-05T20:58:34.568Z,97268.94
2022-11-05T21:01:00.965Z,97267.97
2022-11-05T21:03:27.290Z,97271.59
2022-11-05T21:05:56.386Z,97272.59
2022-11-05T21:08:22.795Z,97269.81
2022-11-05T21:10:51.410Z,97269.41
2022-11-05T21:13:17.954Z,97278.56
2022-11-05T21:15:49.203Z,97281.44
2022-11-05T21:18:16.001Z,97291.16
2022-11-05T21:20:43.491Z,97283.69
2022-11-05T21:23:10.023Z,97283.97
2022-11-05T21:25:43.244Z,97289.78
2022-11-05T21:28:10.954Z,97290.66
2022-11-05T21:30:41.598Z,97280.72
2022-11-05T21:33:08.587Z,97292.56
2022-11-05T21:35:39.090Z,97285.50
2022-11-05T21:38:05.466Z,97289.75
2022-11-05T21:40:32.694Z,97292.38
2022-11-05T21:42:59.062Z,97293.72
2022-11-05T21:45:26.260Z,97293.22
2022-11-05T21:47:52.628Z,97290.72
2022-11-05T21:50:21.891Z,97287.66
2022-11-05T21:53:06.834Z,97292.75
2022-11-05T21:55:51.646Z,97290.41
2022-11-05T21:58:40.918Z,97289.88
2022-11-05T22:01:07.279Z,97297.31
2022-11-05T22:03:33.720Z,97287.94
2022-11-05T22:06:00.047Z,97294.84
2022-11-05T22:08:27.246Z,97293.22
2022-11-05T22:10:53.560Z,97293.50
2022-11-05T22:13:19.880Z,97291.84
2022-11-05T22:15:54.021Z,97289.91
2022-11-05T22:18:20.411Z,97287.19
2022-11-05T22:20:47.804Z,97291.59
2022-11-05T22:23:14.136Z,97286.09
2022-11-05T22:25:40.653Z,97284.19
2022-11-05T22:28:07.010Z,97284.72
2022-11-05T22:30:34.792Z,97284.72
2022-11-05T22:33:02.627Z,97283.88
2022-11-05T22:35:29.081Z,97275.63
2022-11-05T22:37:55.514Z,97277.28
2022-11-05T22:40:23.968Z,97285.44
2022-11-05T22:42:51.121Z,97287.03
2022-11-05T22:45:17.532Z,97277.69
2022-11-05T22:47:43.906Z,97287.22
2022-11-05T22:50:10.401Z,97278.16
2022-11-05T22:52:36.764Z,97278.53
2022-11-05T22:55:05.238Z,97277.00
2022-11-05T22:57:37.559Z,97274.84
2022-11-05T23:00:06.698Z,97275.97
2022-11-05T23:02:33.126Z,97276.78
2022-11-05T23:05:00.792Z,97273.66
2022-11-05T23:07:45.773Z,97277.09
2022-11-05T23:10:30.891Z,97279.00
2022-11-05T23:12:57.297Z,97274.75
2022-11-05T23:15:43.117Z,97276.78
2022-11-05T23:18:28.524Z,97268.28
2022-11-05T23:21:17.968Z,97274.75
2022-11-05T23:24:06.619Z,97268.16
2022-11-05T23:26:52.142Z,97274.34
2022-11-05T23:29:23.550Z,97279.59
2022-11-05T23:32:08.887Z,97270.50
2022-11-05T23:34:35.355Z,97267.47
2022-11-05T23:37:20.410Z,97260.31
2022-11-05T23:39:46.708Z,97264.16
2022-11-05T23:42:31.715Z,97271.88
2022-11-05T23:45:18.889Z,97267.19
2022-11-05T23:48:03.873Z,97271.59
2022-11-05T23:50:33.206Z,97272.97
2022-11-05T23:53:03.315Z,97268.59
2022-11-05T23:55:30.259Z,97273.53
2022-11-05T23:57:57.582Z,97274.19
